Time;durP1;ratioP1;P1;durP2;ratioP2;P2;SDS_P1;SDS_P2;PMS_P1;PMS_P2;Temp;Humidity;BMP_temperature;BMP_pressure;BME280_temperature;BME280_humidity;BME280_pressure;Samples;Min_cycle;Max_cycle;Signal;HPM_P1;HPM_P2
2023/08/28 00:00:25;;;;;;;2.40;1.42;;;14.80;99.90;;;;;;5017532;28;20038;-65
2023/08/28 00:02:57;;;;;;;2.47;1.50;;;14.80;99.90;;;;;;5020039;28;20033;-65
2023/08/28 00:05:32;;;;;;;3.38;1.30;;;14.90;99.90;;;;;;5014551;28;20073;-65
2023/08/28 00:08:05;;;;;;;3.45;1.33;;;14.90;99.90;;;;;;5024272;28;20041;-65
2023/08/28 00:10:39;;;;;;;4.93;1.65;;;14.90;99.90;;;;;;5016635;28;20052;-65
2023/08/28 00:13:11;;;;;;;2.97;1.90;;;14.90;99.90;;;;;;5017955;28;20034;-65
2023/08/28 00:15:43;;;;;;;3.30;1.50;;;14.90;99.90;;;;;;5015069;28;20074;-65
2023/08/28 00:18:14;;;;;;;3.25;1.60;;;15.00;99.90;;;;;;5018704;28;20648;-65
2023/08/28 00:20:46;;;;;;;1.58;1.30;;;15.00;99.90;;;;;;5021099;28;20121;-65
2023/08/28 00:23:18;;;;;;;3.10;1.35;;;15.00;99.90;;;;;;5024973;28;20523;-65
2023/08/28 00:25:50;;;;;;;2.70;1.60;;;15.00;99.90;;;;;;5017446;28;20037;-65
2023/08/28 00:28:22;;;;;;;2.30;1.60;;;15.00;99.90;;;;;;5016942;28;20583;-65
2023/08/28 00:30:49;;;;;;;2.03;1.50;;;14.90;99.90;;;;;;4998247;28;20069;-66
2023/08/28 00:33:21;;;;;;;2.05;1.65;;;14.90;99.90;;;;;;5016753;28;20038;-65
2023/08/28 00:35:53;;;;;;;2.95;1.40;;;14.90;99.90;;;;;;5020706;28;20590;-65
2023/08/28 00:38:25;;;;;;;2.03;1.58;;;14.90;99.90;;;;;;5000053;28;20034;-65
2023/08/28 00:40:56;;;;;;;2.22;1.70;;;14.90;99.90;;;;;;5026635;28;20077;-65
2023/08/28 00:43:23;;;;;;;3.10;1.77;;;14.80;99.90;;;;;;5019786;28;20493;-65
2023/08/28 00:45:56;;;;;;;3.10;1.70;;;14.70;99.90;;;;;;5005160;28;20053;-66
2023/08/28 00:48:22;;;;;;;2.08;1.50;;;14.70;99.90;;;;;;5025943;28;20041;-65
2023/08/28 00:50:55;;;;;;;2.85;1.90;;;14.60;99.90;;;;;;5020354;28;20037;-65
2023/08/28 00:53:23;;;;;;;3.58;1.60;;;14.60;99.90;;;;;;5020934;28;20034;-65
2023/08/28 00:55:50;;;;;;;2.58;1.80;;;14.50;99.90;;;;;;5018638;28;20129;-65
2023/08/28 00:58:17;;;;;;;3.72;1.70;;;14.60;99.90;;;;;;5020970;28;20077;-65
2023/08/28 01:00:49;;;;;;;2.17;1.80;;;14.60;99.90;;;;;;5018446;28;20049;-65
2023/08/28 01:03:15;;;;;;;3.92;2.40;;;14.60;99.90;;;;;;5017278;28;20103;-65
2023/08/28 01:06:17;;;;;;;2.20;1.90;;;14.60;99.90;;;;;;5014576;28;20553;-65
2023/08/28 01:09:03;;;;;;;2.65;2.00;;;14.70;99.90;;;;;;5021884;28;20107;-65
2023/08/28 01:11:53;;;;;;;3.72;1.80;;;14.60;99.90;;;;;;5013616;28;20045;-65
2023/08/28 01:14:27;;;;;;;2.60;2.08;;;14.70;99.90;;;;;;5025692;28;20065;-65
2023/08/28 01:17:04;;;;;;;6.82;2.10;;;14.70;99.90;;;;;;5027029;28;20046;-65
2023/08/28 01:19:40;;;;;;;4.38;2.30;;;14.60;99.90;;;;;;5027338;28;20044;-65
2023/08/28 01:22:38;;;;;;;2.50;2.22;;;14.60;99.90;;;;;;5024903;28;20111;-65
2023/08/28 01:25:10;;;;;;;2.53;2.17;;;14.60;99.90;;;;;;4991249;28;20053;-65
2023/08/28 01:27:39;;;;;;;2.88;2.10;;;14.50;99.90;;;;;;5016971;28;20104;-65
2023/08/28 01:30:12;;;;;;;;;;;14.50;99.90;;;;;;5019290;28;20128;-65
2023/08/28 01:32:45;;;;;;;3.90;2.33;;;14.50;99.90;;;;;;5022782;28;20016;-65
2023/08/28 01:35:24;;;;;;;;;;;14.50;99.90;;;;;;5026823;28;20141;-64
2023/08/28 01:38:05;;;;;;;4.35;2.67;;;14.50;99.90;;;;;;5013742;28;20401;-64
2023/08/28 01:41:03;;;;;;;3.15;2.63;;;14.50;99.90;;;;;;5019686;28;20063;-64
2023/08/28 01:43:38;;;;;;;4.60;2.05;;;14.60;99.90;;;;;;5023077;28;20515;-64
2023/08/28 01:46:08;;;;;;;2.90;2.60;;;14.70;99.90;;;;;;5027796;28;20558;-64
2023/08/28 01:48:40;;;;;;;3.50;2.63;;;14.70;99.90;;;;;;5018108;28;20051;-65
2023/08/28 01:51:12;;;;;;;4.35;2.20;;;14.70;99.90;;;;;;5023472;28;20038;-65
2023/08/28 01:53:45;;;;;;;2.95;2.15;;;14.70;99.90;;;;;;5012582;28;20069;-64
2023/08/28 01:56:22;;;;;;;3.22;2.05;;;14.80;99.90;;;;;;5022884;28;20033;-65
2023/08/28 01:58:56;;;;;;;2.47;2.13;;;14.80;99.90;;;;;;5020306;28;20073;-65
2023/08/28 02:01:28;;;;;;;3.13;2.00;;;14.80;99.90;;;;;;5034823;28;20057;-64
2023/08/28 02:04:00;;;;;;;2.40;2.10;;;14.90;99.90;;;;;;5017507;28;20048;-65
2023/08/28 02:06:32;;;;;;;3.65;2.33;;;14.90;99.90;;;;;;5019000;28;20447;-65
2023/08/28 02:09:04;;;;;;;2.25;2.03;;;14.90;99.90;;;;;;5022127;28;20044;-65
2023/08/28 02:11:36;;;;;;;2.70;2.03;;;14.90;99.90;;;;;;5003865;28;20052;-65
2023/08/28 02:14:08;;;;;;;3.28;2.03;;;14.90;99.90;;;;;;5027034;28;20116;-65
2023/08/28 02:16:40;;;;;;;2.92;2.42;;;14.80;99.90;;;;;;5016759;28;20088;-65
2023/08/28 02:19:12;;;;;;;3.35;2.83;;;14.90;99.90;;;;;;5022971;28;20513;-65
2023/08/28 02:21:44;;;;;;;3.80;2.83;;;14.90;99.90;;;;;;5011839;28;20054;-64
2023/08/28 02:24:11;;;;;;;3.05;2.65;;;14.90;99.90;;;;;;5026141;28;20061;-64
2023/08/28 02:26:43;;;;;;;3.03;2.58;;;14.90;99.90;;;;;;5002853;28;20100;-65
2023/08/28 02:29:14;;;;;;;3.45;2.80;;;14.90;99.90;;;;;;5021214;28;20038;-64
2023/08/28 02:31:41;;;;;;;3.88;2.60;;;14.90;99.90;;;;;;5019263;28;20065;-65
2023/08/28 02:34:13;;;;;;;2.80;2.42;;;14.90;99.90;;;;;;5017788;28;20061;-65
2023/08/28 02:36:45;;;;;;;4.60;2.67;;;14.90;99.90;;;;;;5029901;28;20506;-64
2023/08/28 02:39:17;;;;;;;3.10;2.80;;;14.90;99.90;;;;;;5023842;28;20042;-65
2023/08/28 02:41:49;;;;;;;2.90;2.40;;;14.80;99.90;;;;;;5015013;28;20049;-65
2023/08/28 02:44:21;;;;;;;5.93;2.53;;;14.80;99.90;;;;;;5021297;28;20077;-65
2023/08/28 02:46:53;;;;;;;5.28;2.95;;;14.80;99.90;;;;;;5020584;28;20127;-65
2023/08/28 02:49:25;;;;;;;3.10;2.65;;;14.80;99.90;;;;;;5017474;28;20125;-65
2023/08/28 02:51:57;;;;;;;4.93;3.00;;;14.90;99.90;;;;;;5020177;28;20346;-65
2023/08/28 02:54:29;;;;;;;4.20;3.20;;;14.90;99.90;;;;;;5005519;28;20115;-65
2023/08/28 02:57:01;;;;;;;5.30;2.80;;;14.90;99.90;;;;;;5008988;28;20046;-65
2023/08/28 02:59:32;;;;;;;5.05;3.15;;;14.90;99.90;;;;;;5014966;28;20414;-64
2023/08/28 03:02:05;;;;;;;6.07;3.60;;;15.00;99.90;;;;;;5013391;28;20425;-65
2023/08/28 03:04:38;;;;;;;3.38;2.85;;;14.90;99.90;;;;;;4996570;28;20053;-65
2023/08/28 03:07:05;;;;;;;4.43;3.95;;;15.00;99.90;;;;;;5012582;28;20084;-65
2023/08/28 03:09:38;;;;;;;3.95;3.50;;;14.90;99.90;;;;;;5035068;28;20088;-65
2023/08/28 03:12:05;;;;;;;4.97;3.17;;;14.90;99.90;;;;;;5021636;28;20040;-65
2023/08/28 03:14:37;;;;;;;4.97;3.42;;;15.00;99.90;;;;;;5022406;28;20462;-65
2023/08/28 03:17:08;;;;;;;4.78;4.03;;;14.90;99.90;;;;;;5023128;28;20048;-64
2023/08/28 03:19:41;;;;;;;5.57;4.53;;;14.90;99.90;;;;;;5017748;28;20056;-65
2023/08/28 03:22:12;;;;;;;4.32;3.92;;;14.90;99.90;;;;;;5020592;28;20116;-64
2023/08/28 03:24:39;;;;;;;4.43;3.88;;;14.80;99.90;;;;;;5013634;28;20052;-65
2023/08/28 03:27:06;;;;;;;5.18;4.30;;;14.90;99.90;;;;;;5012534;28;20069;-65
2023/08/28 03:29:38;;;;;;;5.18;4.13;;;14.80;99.90;;;;;;5002707;28;20045;-65
2023/08/28 03:32:09;;;;;;;4.75;4.05;;;14.80;99.90;;;;;;5028943;28;20410;-65
2023/08/28 03:34:42;;;;;;;5.78;4.25;;;14.70;99.90;;;;;;5035938;28;20065;-65
2023/08/28 03:37:14;;;;;;;4.45;4.00;;;14.70;99.90;;;;;;5023778;28;20034;-65
2023/08/28 03:39:45;;;;;;;5.65;3.80;;;14.60;99.90;;;;;;5021490;28;20057;-65
2023/08/28 03:42:17;;;;;;;5.82;3.70;;;14.70;99.90;;;;;;5024837;28;20063;-65
2023/08/28 03:44:49;;;;;;;4.43;3.42;;;14.70;99.90;;;;;;5016805;28;20045;-64
2023/08/28 03:47:16;;;;;;;4.45;3.92;;;14.70;99.90;;;;;;5026394;28;20104;-65
2023/08/28 03:49:48;;;;;;;8.85;4.13;;;14.80;99.90;;;;;;5025974;28;20072;-65
2023/08/28 03:52:21;;;;;;;4.28;3.70;;;14.80;99.90;;;;;;5002288;28;20530;-65
2023/08/28 03:54:53;;;;;;;5.15;4.55;;;14.80;99.90;;;;;;5017778;28;20128;-65
2023/08/28 03:57:25;;;;;;;6.05;5.30;;;14.80;99.90;;;;;;5018283;28;20034;-65
2023/08/28 03:59:57;;;;;;;4.78;4.13;;;14.80;99.90;;;;;;5022485;28;20050;-65
2023/08/28 04:02:40;;;;;;;4.47;4.07;;;14.80;99.90;;;;;;5019930;28;20056;-65
2023/08/28 04:05:16;;;;;;;8.27;4.70;;;14.90;99.90;;;;;;5013651;28;20045;-65
2023/08/28 04:07:49;;;;;;;6.88;4.72;;;14.90;99.90;;;;;;5015145;28;20046;-65
2023/08/28 04:10:21;;;;;;;4.97;4.30;;;14.90;99.90;;;;;;5010151;28;20045;-65
2023/08/28 04:12:53;;;;;;;5.65;4.20;;;14.90;99.90;;;;;;5013068;28;20048;-65
2023/08/28 04:15:20;;;;;;;5.13;3.90;;;14.90;99.90;;;;;;5013257;28;20103;-65
2023/08/28 04:17:47;;;;;;;7.22;4.55;;;14.90;99.90;;;;;;5019254;28;20537;-65
2023/08/28 04:20:15;;;;;;;8.45;4.53;;;14.90;99.90;;;;;;5017198;28;20038;-65
2023/08/28 04:22:47;;;;;;;7.00;4.97;;;14.90;99.90;;;;;;5021197;28;20047;-65
2023/08/28 04:25:19;;;;;;;6.78;5.78;;;14.90;99.90;;;;;;5027204;28;20421;-65
2023/08/28 04:27:51;;;;;;;6.00;4.65;;;14.90;99.90;;;;;;5020870;28;20136;-65
2023/08/28 04:30:18;;;;;;;6.10;4.95;;;14.90;99.90;;;;;;5010192;28;20067;-65
2023/08/28 04:32:51;;;;;;;5.68;4.65;;;14.90;99.90;;;;;;5014498;28;20080;-65
2023/08/28 04:35:23;;;;;;;9.57;5.70;;;14.90;99.90;;;;;;5014078;28;20120;-65
2023/08/28 04:37:55;;;;;;;11.25;6.95;;;14.90;99.90;;;;;;5001905;28;20038;-65
2023/08/28 04:40:22;;;;;;;10.38;5.90;;;14.90;99.90;;;;;;5006117;28;20626;-65
2023/08/28 04:42:54;;;;;;;10.70;5.65;;;14.90;99.90;;;;;;5017925;28;20049;-65
2023/08/28 04:45:27;;;;;;;10.15;6.82;;;14.90;99.90;;;;;;5002727;28;20536;-65
2023/08/28 04:47:59;;;;;;;11.15;6.43;;;14.80;99.90;;;;;;5012766;28;20049;-65
2023/08/28 04:50:30;;;;;;;12.25;6.88;;;14.80;99.90;;;;;;5003286;28;20045;-65
2023/08/28 04:53:02;;;;;;;10.82;6.88;;;14.80;99.90;;;;;;5017732;28;20046;-65
2023/08/28 04:55:29;;;;;;;7.65;6.03;;;14.70;99.90;;;;;;5025602;28;20117;-65
2023/08/28 04:58:01;;;;;;;11.82;6.35;;;14.70;99.90;;;;;;5017358;28;20129;-65
2023/08/28 05:00:33;;;;;;;10.88;6.35;;;14.70;99.90;;;;;;5029711;28;20058;-65
2023/08/28 05:03:00;;;;;;;14.60;6.70;;;14.70;99.90;;;;;;5015342;28;20502;-65
2023/08/28 05:05:32;;;;;;;11.90;6.53;;;14.60;99.90;;;;;;5017372;28;20084;-65
2023/08/28 05:07:59;;;;;;;9.65;6.15;;;14.60;99.90;;;;;;5013379;28;20045;-65
2023/08/28 05:10:31;;;;;;;6.53;5.00;;;14.60;99.90;;;;;;5032538;28;20518;-65
2023/08/28 05:13:04;;;;;;;11.63;6.35;;;14.60;99.90;;;;;;5019322;28;20088;-65
2023/08/28 05:15:36;;;;;;;10.75;5.68;;;14.60;99.90;;;;;;5023755;28;20034;-65
2023/08/28 05:18:11;;;;;;;9.32;5.68;;;14.50;99.90;;;;;;5019315;28;20037;-65
2023/08/28 05:20:43;;;;;;;8.18;5.00;;;14.50;99.90;;;;;;5015219;28;20483;-65
2023/08/28 05:23:15;;;;;;;10.80;5.88;;;14.50;99.90;;;;;;5012479;28;20483;-65
2023/08/28 05:25:42;;;;;;;12.55;6.43;;;14.50;99.90;;;;;;4998749;28;20096;-65
2023/08/28 05:28:14;;;;;;;12.73;6.30;;;14.50;99.90;;;;;;5021567;28;20653;-65
2023/08/28 05:30:45;;;;;;;8.32;5.43;;;14.50;99.90;;;;;;5014951;28;20053;-65
2023/08/28 05:33:18;;;;;;;9.68;5.88;;;14.50;99.90;;;;;;5029087;28;20033;-65
2023/08/28 05:35:44;;;;;;;8.88;5.43;;;14.50;99.90;;;;;;5023049;28;20050;-65
2023/08/28 05:38:16;;;;;;;6.72;5.10;;;14.50;99.90;;;;;;5026760;28;20644;-65
2023/08/28 05:40:44;;;;;;;5.60;4.93;;;14.60;99.90;;;;;;5019656;28;20066;-65
2023/08/28 05:43:16;;;;;;;7.45;5.28;;;14.50;99.90;;;;;;5020813;28;20525;-65
2023/08/28 05:45:49;;;;;;;7.65;4.78;;;14.50;99.90;;;;;;5002409;28;20145;-65
2023/08/28 05:48:17;;;;;;;7.28;4.63;;;14.50;99.90;;;;;;5017527;28;20583;-65
2023/08/28 05:50:50;;;;;;;6.60;5.00;;;14.50;99.90;;;;;;5019141;28;20042;-65
2023/08/28 05:53:22;;;;;;;4.72;4.07;;;14.60;99.90;;;;;;5026665;28;20030;-65
2023/08/28 05:55:53;;;;;;;7.40;5.68;;;14.50;99.90;;;;;;5001175;28;20577;-65
2023/08/28 05:58:25;;;;;;;6.68;5.30;;;14.50;99.90;;;;;;5013037;28;20124;-66
2023/08/28 06:00:58;;;;;;;8.45;4.97;;;14.50;99.90;;;;;;5023367;28;20128;-66
2023/08/28 06:03:30;;;;;;;7.43;4.80;;;14.50;99.90;;;;;;5027884;28;20045;-65
2023/08/28 06:06:03;;;;;;;6.07;4.75;;;14.50;99.90;;;;;;5019076;28;20104;-65
2023/08/28 06:08:35;;;;;;;;;;;14.50;99.90;;;;;;5051504;23;20045;-67
2023/08/28 06:11:03;;;;;;;5.63;4.43;;;14.50;99.90;;;;;;5025470;28;19921;-66
2023/08/28 06:13:36;;;;;;;6.70;4.93;;;14.40;99.90;;;;;;5055722;28;20046;-65
2023/08/28 06:16:03;;;;;;;6.07;5.03;;;14.40;99.90;;;;;;5040807;28;20578;-66
2023/08/28 06:18:32;;;;;;;7.00;5.70;;;14.40;99.90;;;;;;5037665;28;20052;-67
2023/08/28 06:21:04;;;;;;;6.88;5.72;;;14.40;99.90;;;;;;5035606;28;20518;-66
2023/08/28 06:23:30;;;;;;;6.65;5.32;;;14.40;99.90;;;;;;5039757;28;20057;-66
2023/08/28 06:26:03;;;;;;;5.32;4.78;;;14.40;99.90;;;;;;5023375;28;20049;-66
2023/08/28 06:28:35;;;;;;;6.07;5.10;;;14.40;99.90;;;;;;5043396;28;20065;-66
2023/08/28 06:31:07;;;;;;;7.65;4.70;;;14.40;99.90;;;;;;5044361;28;20136;-66
2023/08/28 06:33:34;;;;;;;6.90;5.28;;;14.40;99.90;;;;;;5040160;28;20037;-66
2023/08/28 06:36:06;;;;;;;5.95;5.35;;;14.40;99.90;;;;;;5040328;28;20041;-66
2023/08/28 06:38:38;;;;;;;6.88;5.40;;;14.40;99.90;;;;;;5044427;28;20135;-66
2023/08/28 06:41:05;;;;;;;9.02;5.95;;;14.40;99.90;;;;;;5036525;28;20037;-66
2023/08/28 06:43:37;;;;;;;9.77;5.88;;;14.40;99.90;;;;;;5020008;28;20043;-66
2023/08/28 06:46:09;;;;;;;6.68;5.78;;;14.40;99.90;;;;;;5031919;28;20410;-66
2023/08/28 06:48:37;;;;;;;9.30;6.10;;;14.40;99.90;;;;;;5037147;28;20058;-66
2023/08/28 06:51:12;;;;;;;6.22;5.63;;;14.40;99.90;;;;;;5034380;28;20052;-66
2023/08/28 06:53:44;;;;;;;6.43;5.45;;;14.40;99.90;;;;;;5040392;28;20128;-67
2023/08/28 06:56:11;;;;;;;7.25;5.38;;;14.40;99.90;;;;;;5038320;28;20458;-67
2023/08/28 06:58:42;;;;;;;6.28;5.68;;;14.40;99.90;;;;;;5039997;28;20441;-66
2023/08/28 07:01:14;;;;;;;7.22;5.95;;;14.40;99.90;;;;;;5038884;28;20506;-66
2023/08/28 07:03:41;;;;;;;8.52;6.38;;;14.40;99.90;;;;;;5036259;28;20052;-66
2023/08/28 07:06:13;;;;;;;6.80;5.43;;;14.40;99.90;;;;;;5034961;28;20037;-66
2023/08/28 07:08:46;;;;;;;6.40;5.80;;;14.40;99.90;;;;;;5032486;28;20049;-67
2023/08/28 07:11:18;;;;;;;6.80;5.55;;;14.40;99.90;;;;;;5023297;28;20072;-66
2023/08/28 07:13:50;;;;;;;6.78;5.82;;;14.50;99.90;;;;;;5041540;28;20096;-66
2023/08/28 07:16:22;;;;;;;6.63;5.40;;;14.50;99.90;;;;;;5038748;28;20042;-68
2023/08/28 07:18:53;;;;;;;7.25;5.40;;;14.50;99.90;;;;;;5038703;28;20048;-68
2023/08/28 07:21:25;;;;;;;10.65;5.93;;;14.50;99.90;;;;;;5041431;28;20033;-66
2023/08/28 07:23:52;;;;;;;6.63;5.93;;;14.50;99.90;;;;;;5038419;28;20087;-67
2023/08/28 07:26:24;;;;;;;6.45;5.82;;;14.40;99.90;;;;;;5036528;28;20054;-66
2023/08/28 07:28:56;;;;;;;6.25;5.65;;;14.50;99.90;;;;;;5020137;28;20077;-66
2023/08/28 07:31:23;;;;;;;8.18;5.55;;;14.50;99.90;;;;;;5032266;28;20080;-66
2023/08/28 07:33:50;;;;;;;6.90;5.57;;;14.40;99.90;;;;;;5038063;28;20052;-66
2023/08/28 07:36:23;;;;;;;8.23;5.80;;;14.40;99.90;;;;;;5040583;28;20041;-66
2023/08/28 07:38:50;;;;;;;6.18;5.53;;;14.40;99.90;;;;;;5041942;28;20068;-66
2023/08/28 07:41:19;;;;;;;7.63;5.85;;;14.50;99.90;;;;;;5037781;28;20461;-68
2023/08/28 07:43:46;;;;;;;7.00;6.30;;;14.50;99.90;;;;;;5038758;28;20041;-66
2023/08/28 07:46:13;;;;;;;6.75;5.82;;;14.40;99.90;;;;;;5038995;28;20053;-66
2023/08/28 07:48:45;;;;;;;6.07;5.50;;;14.40;99.90;;;;;;5029917;28;20167;-67
2023/08/28 07:51:17;;;;;;;6.28;5.68;;;14.40;99.90;;;;;;5034140;28;20037;-66
2023/08/28 07:53:49;;;;;;;6.00;5.40;;;14.40;99.90;;;;;;5031826;28;20049;-66
2023/08/28 07:56:21;;;;;;;7.22;5.25;;;14.40;99.90;;;;;;5030354;28;20113;-66
2023/08/28 07:58:52;;;;;;;6.20;5.60;;;14.40;99.90;;;;;;5042780;28;20067;-67
2023/08/28 08:01:24;;;;;;;6.03;5.35;;;14.40;99.90;;;;;;5039933;28;20042;-67
2023/08/28 08:03:57;;;;;;;5.68;5.00;;;14.40;99.90;;;;;;5041579;28;20075;-67
2023/08/28 08:06:29;;;;;;;5.70;5.07;;;14.40;99.90;;;;;;5040415;28;20044;-67
2023/08/28 08:09:01;;;;;;;5.68;4.93;;;14.50;99.90;;;;;;5039201;28;20307;-67
2023/08/28 08:11:32;;;;;;;5.53;4.85;;;14.60;99.90;;;;;;5038985;28;20043;-67
2023/08/28 08:14:04;;;;;;;4.88;4.10;;;14.60;99.90;;;;;;5032209;28;20049;-66
2023/08/28 08:16:36;;;;;;;4.32;3.75;;;14.60;99.90;;;;;;5031572;28;20029;-67
2023/08/28 08:19:08;;;;;;;3.90;3.50;;;14.60;99.90;;;;;;5031238;28;20072;-66
2023/08/28 08:21:40;;;;;;;4.25;3.85;;;14.60;99.90;;;;;;5023445;28;20504;-66
2023/08/28 08:24:07;;;;;;;4.20;3.80;;;14.70;99.90;;;;;;5044092;28;20060;-67
2023/08/28 08:26:39;;;;;;;4.25;3.85;;;14.60;99.90;;;;;;5038889;28;20033;-68
2023/08/28 08:29:06;;;;;;;4.28;3.85;;;14.70;99.90;;;;;;5040948;28;20037;-66
2023/08/28 08:31:38;;;;;;;4.78;4.05;;;14.70;99.90;;;;;;5039739;28;20046;-66
2023/08/28 08:34:05;;;;;;;5.53;3.90;;;14.70;99.90;;;;;;5035477;28;20124;-66
2023/08/28 08:36:31;;;;;;;5.40;4.07;;;14.60;99.90;;;;;;5033260;28;20038;-67
2023/08/28 08:39:03;;;;;;;5.25;4.10;;;14.70;99.90;;;;;;5033366;28;20136;-67
2023/08/28 08:41:38;;;;;;;4.22;3.83;;;14.70;99.90;;;;;;5034065;28;20048;-66
2023/08/28 08:44:05;;;;;;;5.22;3.80;;;14.70;99.90;;;;;;5037386;28;20048;-66
2023/08/28 08:46:33;;;;;;;4.45;3.83;;;14.80;99.90;;;;;;5044081;28;20071;-67
2023/08/28 08:49:07;;;;;;;3.85;3.05;;;14.80;99.90;;;;;;5042808;28;20053;-67
2023/08/28 08:51:43;;;;;;;4.05;3.42;;;14.70;99.90;;;;;;5041062;28;20428;-67
2023/08/28 08:54:26;;;;;;;5.40;3.70;;;14.70;99.90;;;;;;5039502;28;20044;-68
2023/08/28 08:57:00;;;;;;;4.00;3.60;;;14.70;99.90;;;;;;5051452;28;20049;-67
2023/08/28 08:59:32;;;;;;;3.88;3.47;;;14.70;99.90;;;;;;5032480;28;20036;-65
2023/08/28 09:02:04;;;;;;;4.68;3.90;;;14.70;99.90;;;;;;5030756;28;20072;-66
2023/08/28 09:04:38;;;;;;;4.70;4.00;;;14.80;99.90;;;;;;5038884;28;20049;-66
2023/08/28 09:07:11;;;;;;;4.13;3.72;;;14.80;99.90;;;;;;5036244;28;20125;-66
2023/08/28 09:09:44;;;;;;;5.35;4.13;;;14.80;99.90;;;;;;5043767;28;20045;-66
2023/08/28 09:12:16;;;;;;;4.90;4.50;;;14.80;99.90;;;;;;5043851;28;20071;-66
2023/08/28 09:14:49;;;;;;;4.65;4.25;;;14.90;99.90;;;;;;5056990;28;20049;-68
2023/08/28 09:17:21;;;;;;;5.28;4.13;;;14.90;99.90;;;;;;5047106;28;20127;-66
2023/08/28 09:19:54;;;;;;;5.88;4.13;;;15.00;99.90;;;;;;5041385;28;20141;-66
2023/08/28 09:22:25;;;;;;;6.18;5.00;;;15.10;99.90;;;;;;5034922;28;20041;-66
2023/08/28 09:24:57;;;;;;;5.30;4.80;;;15.20;99.90;;;;;;5042123;28;20505;-66
2023/08/28 09:27:24;;;;;;;5.07;4.30;;;15.30;99.90;;;;;;5034843;28;20049;-66
2023/08/28 09:29:53;;;;;;;5.68;5.18;;;15.40;99.90;;;;;;5037828;28;20115;-66
2023/08/28 09:32:26;;;;;;;5.93;5.30;;;15.40;99.90;;;;;;5045632;28;20037;-66
2023/08/28 09:34:54;;;;;;;5.60;5.10;;;15.40;99.90;;;;;;5044747;28;20449;-66
2023/08/28 09:37:28;;;;;;;5.30;4.80;;;15.40;99.90;;;;;;5041258;28;20041;-66
2023/08/28 09:40:00;;;;;;;5.80;5.20;;;15.50;99.90;;;;;;5048584;28;20110;-66
2023/08/28 09:42:28;;;;;;;6.82;4.68;;;15.60;99.90;;;;;;5048915;28;20049;-66
2023/08/28 09:45:05;;;;;;;5.28;4.13;;;15.60;99.90;;;;;;5039745;28;20060;-66
2023/08/28 09:47:36;;;;;;;5.35;4.85;;;15.70;99.90;;;;;;5038347;28;20076;-66
2023/08/28 09:50:09;;;;;;;5.45;4.93;;;15.60;99.90;;;;;;5034890;28;20080;-66
2023/08/28 09:52:41;;;;;;;6.07;5.47;;;15.60;99.90;;;;;;5038223;28;20041;-66
2023/08/28 09:55:12;;;;;;;6.13;5.53;;;15.60;99.90;;;;;;5046207;28;20132;-65
2023/08/28 09:57:44;;;;;;;4.57;4.18;;;15.60;99.90;;;;;;5042090;28;20673;-66
2023/08/28 10:00:16;;;;;;;6.15;4.85;;;15.70;99.90;;;;;;5047533;28;20033;-66
2023/08/28 10:02:50;;;;;;;4.57;4.18;;;15.70;99.90;;;;;;5043462;28;20044;-66
2023/08/28 10:05:23;;;;;;;6.68;4.93;;;15.70;99.90;;;;;;5049478;28;20041;-67
2023/08/28 10:08:01;;;;;;;6.05;5.10;;;15.90;99.90;;;;;;5043992;28;20452;-66
2023/08/28 10:10:34;;;;;;;5.07;4.57;;;16.00;99.90;;;;;;5032597;28;20044;-67
2023/08/28 10:13:10;;;;;;;4.93;4.32;;;16.00;99.90;;;;;;5035074;28;20107;-66
2023/08/28 10:16:05;;;;;;;4.00;3.65;;;16.10;99.90;;;;;;5038421;28;20092;-68
2023/08/28 10:18:38;;;;;;;5.88;3.78;;;16.20;99.90;;;;;;5043913;28;20029;-66
2023/08/28 10:21:11;;;;;;;4.10;3.70;;;16.20;99.90;;;;;;5057375;28;20040;-66
2023/08/28 10:23:45;;;;;;;4.93;4.40;;;16.10;99.90;;;;;;5043680;28;20070;-66
2023/08/28 10:26:19;;;;;;;4.47;3.97;;;16.10;99.90;;;;;;5028862;28;20045;-67
2023/08/28 10:28:52;;;;;;;5.47;3.50;;;16.00;99.90;;;;;;5035608;28;20045;-68
2023/08/28 10:31:20;;;;;;;6.25;3.85;;;15.90;99.90;;;;;;5033542;28;20045;-68
2023/08/28 10:33:52;;;;;;;4.30;3.90;;;15.90;99.90;;;;;;5037850;28;20040;-67
2023/08/28 10:36:21;;;;;;;4.03;3.30;;;15.80;99.90;;;;;;5037661;28;20075;-67
2023/08/28 10:38:55;;;;;;;5.15;3.97;;;15.80;99.90;;;;;;5044564;28;20147;-66
2023/08/28 10:41:22;;;;;;;4.25;3.40;;;15.80;99.90;;;;;;5040549;28;20466;-66
2023/08/28 10:43:55;;;;;;;4.82;4.05;;;15.80;99.90;;;;;;5031453;28;20436;-66
2023/08/28 10:46:28;;;;;;;5.80;3.53;;;15.90;99.90;;;;;;5041188;28;20048;-66
2023/08/28 10:49:03;;;;;;;;;;;15.80;99.90;;;;;;5047683;28;20501;-67
2023/08/28 10:51:38;;;;;;;5.03;3.92;;;15.70;99.90;;;;;;5041057;28;20363;-67
2023/08/28 10:54:10;;;;;;;3.80;3.40;;;15.70;99.90;;;;;;5037123;28;20069;-68
2023/08/28 10:56:38;;;;;;;4.38;3.60;;;15.80;99.90;;;;;;5034661;28;20029;-68
2023/08/28 10:59:24;;;;;;;4.55;3.83;;;15.70;99.90;;;;;;5051351;28;20498;-66
2023/08/28 11:01:58;;;;;;;5.68;3.72;;;15.80;99.90;;;;;;5032024;28;20040;-66
2023/08/28 11:04:33;;;;;;;3.80;3.50;;;15.70;99.90;;;;;;5041155;28;20057;-66
2023/08/28 11:07:00;;;;;;;4.72;4.00;;;15.70;99.90;;;;;;5040532;28;20489;-67
2023/08/28 11:09:33;;;;;;;4.28;3.88;;;15.70;99.90;;;;;;5037400;28;20034;-66
2023/08/28 11:12:11;;;;;;;4.80;3.10;;;15.70;99.90;;;;;;5046233;28;20619;-66
2023/08/28 11:14:53;;;;;;;5.40;3.72;;;15.70;99.90;;;;;;5039748;28;20042;-67
2023/08/28 11:17:25;;;;;;;4.18;3.00;;;15.50;99.90;;;;;;5031116;28;20037;-65
2023/08/28 11:19:57;;;;;;;4.25;2.92;;;15.50;99.90;;;;;;5042983;28;20140;-66
2023/08/28 11:22:33;;;;;;;3.88;2.90;;;15.50;99.90;;;;;;5035036;28;20449;-68
2023/08/28 11:25:11;;;;;;;3.92;2.65;;;15.40;99.90;;;;;;5038991;28;20040;-66
2023/08/28 11:27:44;;;;;;;2.70;2.22;;;15.20;99.90;;;;;;5038836;28;20089;-65
2023/08/28 11:30:21;;;;;;;3.97;2.40;;;15.20;99.90;;;;;;5039814;28;20065;-67
2023/08/28 11:32:55;;;;;;;2.35;2.15;;;15.10;99.90;;;;;;5046851;28;20045;-65
2023/08/28 11:35:27;;;;;;;2.55;2.13;;;15.10;99.90;;;;;;5034660;28;20034;-66
2023/08/28 11:37:55;;;;;;;5.13;2.50;;;14.90;99.90;;;;;;5039758;28;20080;-66
2023/08/28 11:40:27;;;;;;;2.95;2.13;;;14.90;99.90;;;;;;5032370;28;20045;-65
2023/08/28 11:43:08;;;;;;;2.70;2.30;;;14.80;99.90;;;;;;5042378;28;20075;-66
2023/08/28 11:45:42;;;;;;;2.85;2.25;;;14.80;99.90;;;;;;5037882;28;20049;-65
2023/08/28 11:48:14;;;;;;;2.70;2.10;;;14.70;99.90;;;;;;5039716;28;20044;-65
2023/08/28 11:50:45;;;;;;;2.30;2.05;;;14.70;99.90;;;;;;5027425;28;20083;-66
2023/08/28 11:53:12;;;;;;;3.17;2.42;;;14.70;99.90;;;;;;5037766;28;20635;-68
2023/08/28 11:55:44;;;;;;;5.78;3.50;;;14.70;99.90;;;;;;5036115;28;20045;-66
2023/08/28 11:58:12;;;;;;;2.60;2.13;;;14.60;99.90;;;;;;5034240;28;20040;-66
2023/08/28 12:00:43;;;;;;;4.78;2.80;;;14.60;99.90;;;;;;5022943;28;20045;-66
2023/08/28 12:03:19;;;;;;;3.83;2.55;;;14.60;99.90;;;;;;5039618;28;20029;-67
2023/08/28 12:06:06;;;;;;;3.00;2.38;;;14.60;99.90;;;;;;5041936;28;20030;-67
2023/08/28 12:08:35;;;;;;;4.05;2.55;;;14.70;99.90;;;;;;5036247;28;20045;-66
2023/08/28 12:11:12;;;;;;;3.63;2.22;;;14.80;99.90;;;;;;5039868;28;20040;-66
2023/08/28 12:13:44;;;;;;;5.25;2.50;;;14.80;99.90;;;;;;5039112;28;20061;-66
2023/08/28 12:16:19;;;;;;;3.03;2.07;;;14.80;99.90;;;;;;5036843;28;20033;-66
2023/08/28 12:18:53;;;;;;;2.72;2.15;;;14.80;99.90;;;;;;5047897;22;20046;-65
2023/08/28 12:21:36;;;;;;;2.20;2.00;;;14.80;99.90;;;;;;5035959;28;20048;-67
2023/08/28 12:24:10;;;;;;;2.65;2.15;;;14.80;99.90;;;;;;5042468;28;20040;-65
2023/08/28 12:26:43;;;;;;;2.35;1.80;;;14.80;99.90;;;;;;5036819;28;20135;-65
2023/08/28 12:29:15;;;;;;;2.65;1.83;;;14.80;99.90;;;;;;5042521;28;20084;-65
2023/08/28 12:31:48;;;;;;;2.75;2.00;;;14.80;99.90;;;;;;5038166;28;20040;-65
2023/08/28 12:34:16;;;;;;;2.55;1.85;;;14.80;99.90;;;;;;5041266;28;20517;-65
2023/08/28 12:36:48;;;;;;;3.50;1.70;;;14.80;99.90;;;;;;5040369;28;20069;-65
2023/08/28 12:39:20;;;;;;;4.63;2.45;;;14.80;99.90;;;;;;5038932;28;20040;-65
2023/08/28 12:41:53;;;;;;;5.22;2.50;;;14.80;99.90;;;;;;5036562;28;20049;-65
2023/08/28 12:44:27;;;;;;;3.75;2.25;;;14.80;99.90;;;;;;5033779;28;20096;-65
2023/08/28 12:46:59;;;;;;;2.13;1.75;;;14.80;99.90;;;;;;5039898;28;20037;-65
2023/08/28 12:49:32;;;;;;;2.75;1.83;;;14.70;99.90;;;;;;5040808;28;20038;-65
2023/08/28 12:52:04;;;;;;;2.60;1.90;;;14.60;99.90;;;;;;5036466;28;20041;-65
2023/08/28 12:54:38;;;;;;;2.58;1.60;;;14.60;99.90;;;;;;5039088;28;20490;-65
2023/08/28 12:57:10;;;;;;;2.35;1.70;;;14.50;99.90;;;;;;5041525;28;20037;-65
2023/08/28 12:59:42;;;;;;;3.13;1.90;;;14.50;99.90;;;;;;5041339;28;20049;-65
2023/08/28 13:02:13;;;;;;;2.05;1.70;;;14.50;99.90;;;;;;5039599;28;20033;-65
2023/08/28 13:04:45;;;;;;;4.35;1.83;;;14.50;99.90;;;;;;5036052;28;20132;-65
2023/08/28 13:07:17;;;;;;;2.72;1.83;;;14.50;99.90;;;;;;5033711;28;20125;-65
2023/08/28 13:09:49;;;;;;;3.47;1.90;;;14.50;99.90;;;;;;5032003;28;20053;-65
2023/08/28 13:12:16;;;;;;;2.38;1.80;;;14.50;99.90;;;;;;5045143;28;20095;-65